Time;durP1;ratioP1;P1;durP2;ratioP2;P2;SDS_P1;SDS_P2;PMS_P1;PMS_P2;Temp;Humidity;BMP_temperature;BMP_pressure;BME280_temperature;BME280_humidity;BME280_pressure;Samples;Min_cycle;Max_cycle;Signal;HPM_P1;HPM_P2
2021/10/07 00:00:35;;;;;;;11.28;6.12;;;;;;;2.27;64.39;102486.53;1714349;81;21046;-71
2021/10/07 00:03:02;;;;;;;10.85;5.67;;;;;;;2.23;64.50;102479.06;1725493;81;21268;-71
2021/10/07 00:05:28;;;;;;;9.43;6.28;;;;;;;2.20;64.60;102480.69;1733443;81;21078;-72
2021/10/07 00:07:55;;;;;;;11.05;5.87;;;;;;;2.17;64.67;102481.00;1718031;81;21046;-71
2021/10/07 00:10:22;;;;;;;11.78;5.70;;;;;;;2.17;64.72;102488.91;1702948;82;21050;-72
2021/10/07 00:12:49;;;;;;;10.98;5.60;;;;;;;2.15;64.75;102481.16;1724756;81;21030;-72
2021/10/07 00:15:15;;;;;;;10.05;5.75;;;;;;;2.14;64.84;102488.75;1732095;81;21049;-71
2021/10/07 00:17:43;;;;;;;11.53;6.10;;;;;;;2.13;64.93;102486.25;1708598;81;21046;-71
2021/10/07 00:20:11;;;;;;;10.40;4.90;;;;;;;2.11;64.90;102487.23;1727190;81;21117;-71
2021/10/07 00:22:39;;;;;;;8.98;5.08;;;;;;;2.11;64.78;102493.83;1723087;81;22126;-70
2021/10/07 00:25:09;;;;;;;7.85;4.97;;;;;;;2.11;64.63;102493.83;1723090;81;21727;-71
2021/10/07 00:27:36;;;;;;;11.40;5.03;;;;;;;2.11;64.82;102492.51;1725164;81;21539;-71
2021/10/07 00:30:10;;;;;;;8.28;4.80;;;;;;;2.12;64.92;102493.33;1726106;81;21026;-71
2021/10/07 00:32:37;;;;;;;10.03;5.40;;;;;;;2.10;64.81;102492.15;1709148;83;21044;-71
2021/10/07 00:35:15;;;;;;;9.03;5.20;;;;;;;2.11;64.82;102493.83;1728921;81;21294;-70
2021/10/07 00:40:06;;;;;;;7.80;4.80;;;;;;;2.10;64.73;102497.42;1702469;82;21139;-71
2021/10/07 00:42:33;;;;;;;8.03;4.50;;;;;;;2.11;64.74;102498.28;1702900;83;21097;-71
2021/10/07 00:45:00;;;;;;;6.85;4.20;;;;;;;2.10;64.78;102503.19;1726398;81;21217;-71
2021/10/07 00:47:26;;;;;;;9.13;4.58;;;;;;;2.09;64.72;102504.17;1725713;81;20994;-71
2021/10/07 00:49:53;;;;;;;8.55;4.72;;;;;;;2.08;64.75;102499.89;1714430;81;21062;-71
2021/10/07 00:52:20;;;;;;;8.08;4.47;;;;;;;2.06;64.79;102500.03;1731161;81;21601;-72
2021/10/07 00:54:49;;;;;;;8.10;4.28;;;;;;;2.06;64.73;102498.72;1730737;81;21006;-71
2021/10/07 00:57:19;;;;;;;8.05;3.75;;;;;;;2.05;64.85;102500.20;1748785;81;21073;-72
2021/10/07 00:59:47;;;;;;;7.90;4.83;;;;;;;2.02;64.79;102506.59;1741317;81;21068;-73
2021/10/07 01:02:14;;;;;;;8.50;4.40;;;;;;;1.98;64.87;102510.52;1723563;81;21042;-72
2021/10/07 01:04:40;;;;;;;7.33;4.45;;;;;;;1.96;65.03;102503.25;1676843;84;21143;-72
2021/10/07 01:07:07;;;;;;;8.58;4.17;;;;;;;1.95;64.98;102509.51;1670489;84;21090;-72
2021/10/07 01:09:34;;;;;;;7.60;3.98;;;;;;;1.96;64.88;102511.16;1704104;81;21088;-70
2021/10/07 01:12:02;;;;;;;8.08;4.28;;;;;;;1.97;65.04;102518.56;1705970;81;21033;-71
2021/10/07 01:14:47;;;;;;;8.03;3.80;;;;;;;1.99;65.23;102518.76;1725306;81;22113;-71
2021/10/07 01:17:15;;;;;;;8.10;4.50;;;;;;;1.98;65.34;102518.92;1724514;81;21658;-71
2021/10/07 01:19:44;;;;;;;9.40;4.75;;;;;;;1.95;65.46;102518.73;1726275;81;22236;-71
2021/10/07 01:22:12;;;;;;;7.20;3.67;;;;;;;1.94;65.57;102526.77;1727315;81;21176;-70
2021/10/07 01:24:39;;;;;;;7.60;4.47;;;;;;;1.92;65.42;102525.63;1716566;81;21053;-70
2021/10/07 01:27:11;;;;;;;7.80;4.25;;;;;;;1.91;65.43;102523.98;1705021;82;21062;-70
2021/10/07 01:29:45;;;;;;;11.65;4.22;;;;;;;1.88;65.57;102521.14;1699406;82;21644;-70
2021/10/07 01:32:22;;;;;;;8.73;4.35;;;;;;;1.87;65.60;102527.38;1668121;84;21124;-70
2021/10/07 01:34:59;;;;;;;8.18;4.12;;;;;;;1.86;65.60;102524.91;1711796;81;21140;-70
2021/10/07 01:37:39;;;;;;;6.90;3.42;;;;;;;1.83;65.71;102522.57;1697199;83;21062;-69
2021/10/07 01:43:01;;;;;;;8.13;3.85;;;;;;;1.74;65.79;102530.05;1700622;82;21757;-71
2021/10/07 01:45:27;;;;;;;8.58;3.83;;;;;;;1.69;65.85;102529.20;1675038;84;21070;-70
2021/10/07 01:47:54;;;;;;;7.22;3.85;;;;;;;1.68;65.88;102545.13;1676485;84;21522;-70
2021/10/07 01:50:21;;;;;;;7.25;4.12;;;;;;;1.65;65.97;102542.33;1678667;85;21061;-70
2021/10/07 01:52:48;;;;;;;8.43;4.78;;;;;;;1.63;66.00;102545.59;1674334;84;21126;-71
2021/10/07 01:55:15;;;;;;;8.50;4.05;;;;;;;1.62;66.02;102547.89;1678666;85;21156;-70
2021/10/07 01:57:43;;;;;;;10.78;4.30;;;;;;;1.62;66.16;102556.63;1666914;83;21055;-70
2021/10/07 02:00:11;;;;;;;6.08;3.52;;;;;;;1.60;66.15;102552.47;1678207;85;21126;-70
2021/10/07 02:02:38;;;;;;;5.55;3.77;;;;;;;1.59;66.13;102556.09;1693921;84;22080;-71
2021/10/07 02:05:06;;;;;;;7.35;4.10;;;;;;;1.54;66.23;102559.16;1695012;84;21101;-71
2021/10/07 02:07:32;;;;;;;9.08;4.45;;;;;;;1.54;66.43;102559.16;1694100;84;21152;-69
2021/10/07 02:09:59;;;;;;;10.98;4.67;;;;;;;1.54;66.43;102560.96;1694688;83;21066;-70
2021/10/07 02:12:27;;;;;;;9.10;4.78;;;;;;;1.53;66.44;102550.92;1686517;83;21157;-70
2021/10/07 02:14:54;;;;;;;9.35;4.37;;;;;;;1.53;66.64;102552.23;1690043;84;20966;-71
2021/10/07 02:17:21;;;;;;;7.42;3.92;;;;;;;1.52;66.64;102553.22;1688517;84;21080;-71
2021/10/07 02:19:48;;;;;;;10.38;4.33;;;;;;;1.51;66.69;102558.13;1673105;85;21839;-72
2021/10/07 02:22:14;;;;;;;9.80;4.22;;;;;;;1.47;66.79;102554.14;1673172;83;21083;-72
2021/10/07 02:24:41;;;;;;;8.53;4.37;;;;;;;1.46;66.86;102560.88;1671513;85;21146;-72
2021/10/07 02:27:08;;;;;;;7.75;4.22;;;;;;;1.46;66.98;102559.08;1676431;83;21063;-71
2021/10/07 02:29:37;;;;;;;6.50;4.00;;;;;;;1.43;67.01;102563.32;1678534;85;21566;-70
2021/10/07 02:32:04;;;;;;;7.05;3.95;;;;;;;1.43;67.10;102563.81;1674207;83;21091;-70
2021/10/07 02:34:32;;;;;;;6.05;3.70;;;;;;;1.39;67.17;102560.16;1672944;83;21096;-71
2021/10/07 02:36:58;;;;;;;8.40;4.55;;;;;;;1.39;67.21;102568.05;1677185;85;21234;-71
2021/10/07 02:39:25;;;;;;;9.85;4.33;;;;;;;1.38;67.32;102567.72;1670063;83;21015;-71
2021/10/07 02:41:51;;;;;;;8.98;4.22;;;;;;;1.38;67.35;102570.36;1664467;85;21101;-71
2021/10/07 02:44:18;;;;;;;8.28;4.10;;;;;;;1.38;67.43;102568.18;1666333;83;21149;-71
2021/10/07 02:46:44;;;;;;;9.35;4.42;;;;;;;1.38;67.42;102572.98;1678159;83;21043;-71
2021/10/07 02:49:11;;;;;;;7.17;4.40;;;;;;;1.38;67.44;102570.36;1672984;83;21133;-71
2021/10/07 02:51:38;;;;;;;6.72;3.77;;;;;;;1.36;67.50;102578.87;1671574;83;21106;-71
2021/10/07 02:54:05;;;;;;;8.03;4.00;;;;;;;1.38;67.51;102582.20;1677426;84;21538;-71
2021/10/07 02:56:32;;;;;;;8.15;4.35;;;;;;;1.35;67.50;102578.55;1678807;84;21145;-71
2021/10/07 02:58:59;;;;;;;9.33;4.42;;;;;;;1.36;67.45;102585.45;1675742;83;21565;-70
2021/10/07 03:01:26;;;;;;;8.15;4.00;;;;;;;1.36;67.45;102584.14;1679801;83;21248;-70
2021/10/07 03:03:53;;;;;;;6.62;4.40;;;;;;;1.35;67.45;102579.86;1678589;83;21529;-72
2021/10/07 03:06:19;;;;;;;6.22;3.45;;;;;;;1.35;67.44;102579.86;1680003;83;21162;-71
2021/10/07 03:08:46;;;;;;;7.72;4.08;;;;;;;1.36;67.37;102582.00;1677610;83;21130;-71
2021/10/07 03:11:15;;;;;;;8.08;4.30;;;;;;;1.35;67.34;102594.80;1655486;85;21058;-71
2021/10/07 03:13:42;;;;;;;6.42;4.25;;;;;;;1.36;67.32;102593.84;1678205;84;21117;-71
2021/10/07 03:16:12;;;;;;;9.15;3.90;;;;;;;1.36;67.34;102599.11;1677861;83;21127;-71
2021/10/07 03:18:39;;;;;;;8.10;4.33;;;;;;;1.35;67.50;102601.38;1695070;83;21065;-72
2021/10/07 03:21:06;;;;;;;7.67;3.67;;;;;;;1.34;67.49;102595.30;1688803;84;21711;-71
2021/10/07 03:23:33;;;;;;;5.75;3.70;;;;;;;1.33;67.52;102595.45;1692313;83;21127;-71
2021/10/07 03:26:00;;;;;;;8.20;3.90;;;;;;;1.31;67.48;102591.63;1667910;84;21183;-71
2021/10/07 03:28:27;;;;;;;7.25;3.87;;;;;;;1.32;67.53;102600.39;1679635;84;21081;-71
2021/10/07 03:30:54;;;;;;;8.00;3.95;;;;;;;1.31;67.58;102597.39;1689386;83;21531;-71
2021/10/07 03:33:49;;;;;;;5.70;3.50;;;;;;;1.26;67.86;102592.58;1674048;83;21750;-71
2021/10/07 03:36:17;;;;;;;6.83;3.92;;;;;;;1.23;67.91;102594.67;1675964;84;21256;-70
2021/10/07 03:38:44;;;;;;;7.90;3.80;;;;;;;1.25;67.74;102600.60;1676881;83;21065;-70
2021/10/07 03:41:10;;;;;;;6.67;3.83;;;;;;;1.25;67.63;102592.70;1675029;83;21081;-70
2021/10/07 03:43:37;;;;;;;7.17;4.37;;;;;;;1.30;67.51;102599.69;1677625;83;21129;-71
2021/10/07 03:46:04;;;;;;;10.30;4.83;;;;;;;1.31;67.44;102594.27;1677639;83;21134;-71
2021/10/07 03:48:32;;;;;;;8.68;4.20;;;;;;;1.33;67.42;102591.50;1671463;83;21151;-70
2021/10/07 03:51:00;;;;;;;6.70;3.85;;;;;;;1.33;67.48;102598.91;1656861;85;21516;-70
2021/10/07 03:53:27;;;;;;;7.55;3.98;;;;;;;1.30;67.47;102595.75;1666504;85;21035;-71
2021/10/07 03:55:57;;;;;;;7.25;4.47;;;;;;;1.29;67.38;102596.73;1677141;85;21033;-71
2021/10/07 03:58:23;;;;;;;7.87;4.20;;;;;;;1.26;67.43;102595.20;1653121;85;21158;-72
2021/10/07 04:00:50;;;;;;;6.28;3.60;;;;;;;1.24;67.75;102591.05;1659755;85;21534;-71
2021/10/07 04:03:17;;;;;;;6.72;3.62;;;;;;;1.20;67.74;102598.91;1677388;85;21070;-70
2021/10/07 04:05:44;;;;;;;7.72;4.05;;;;;;;1.15;67.86;102598.86;1677729;85;22383;-70
2021/10/07 04:08:11;;;;;;;6.70;3.95;;;;;;;1.12;67.84;102604.41;1677655;84;21175;-70
2021/10/07 04:10:39;;;;;;;9.63;4.22;;;;;;;1.10;68.01;102602.40;1678113;85;21182;-71
2021/10/07 04:13:06;;;;;;;7.92;4.40;;;;;;;1.07;68.16;102602.69;1675063;85;21046;-71
2021/10/07 04:15:33;;;;;;;7.47;4.12;;;;;;;1.05;68.32;102602.48;1654606;83;21522;-71
2021/10/07 04:18:00;;;;;;;6.35;3.58;;;;;;;1.02;68.55;102612.83;1695555;84;21094;-71
2021/10/07 04:20:27;;;;;;;7.12;4.28;;;;;;;1.00;68.62;102610.81;1674212;85;21585;-71
2021/10/07 04:22:53;;;;;;;6.15;3.60;;;;;;;0.99;68.74;102610.48;1675938;84;22107;-71
2021/10/07 04:25:20;;;;;;;9.00;4.53;;;;;;;0.97;68.90;102615.05;1671005;84;21138;-70
2021/10/07 04:27:47;;;;;;;6.50;3.87;;;;;;;0.95;69.06;102615.66;1675371;84;21127;-71
2021/10/07 04:30:14;;;;;;;7.10;4.30;;;;;;;0.97;69.06;102620.31;1671859;84;21605;-72
2021/10/07 04:32:45;;;;;;;7.47;4.03;;;;;;;0.97;69.20;102617.67;1670052;84;21060;-71
2021/10/07 04:35:11;;;;;;;7.47;4.45;;;;;;;0.99;69.10;102624.09;1691356;83;22142;-72
2021/10/07 04:37:39;;;;;;;8.23;4.30;;;;;;;1.01;69.06;102629.56;1654686;84;21099;-72
2021/10/07 04:40:07;;;;;;;7.37;3.95;;;;;;;1.06;69.13;102627.35;1675517;84;21077;-71
2021/10/07 04:42:34;;;;;;;8.00;3.90;;;;;;;1.09;69.14;102624.44;1666844;83;20953;-71
2021/10/07 04:45:01;;;;;;;7.22;3.72;;;;;;;1.13;69.15;102627.12;1676406;84;21176;-71
2021/10/07 04:47:31;;;;;;;11.60;4.70;;;;;;;1.14;69.19;102626.13;1677221;85;21127;-72
2021/10/07 04:49:57;;;;;;;6.35;4.53;;;;;;;1.16;69.12;102627.33;1671476;83;21069;-72
2021/10/07 04:52:24;;;;;;;8.23;4.67;;;;;;;1.21;69.25;102629.02;1676800;83;21096;-70
2021/10/07 04:54:50;;;;;;;10.28;4.87;;;;;;;1.28;69.14;102631.91;1694408;83;21217;-70
2021/10/07 04:57:17;;;;;;;7.15;4.37;;;;;;;1.33;68.97;102631.00;1672209;83;21589;-71
2021/10/07 04:59:44;;;;;;;7.15;4.33;;;;;;;1.39;68.84;102623.84;1696240;83;21121;-72
2021/10/07 05:02:12;;;;;;;8.43;4.25;;;;;;;1.46;68.80;102626.72;1679207;83;21045;-71
2021/10/07 05:04:39;;;;;;;7.72;4.62;;;;;;;1.53;68.87;102633.87;1664039;84;21497;-70
2021/10/07 05:07:05;;;;;;;9.43;4.92;;;;;;;1.58;68.51;102629.02;1675860;83;21050;-71
2021/10/07 05:09:32;;;;;;;7.92;4.83;;;;;;;1.65;68.30;102637.16;1676924;83;21645;-70
2021/10/07 05:12:00;;;;;;;6.58;4.42;;;;;;;1.74;68.31;102640.70;1673601;85;21114;-71
2021/10/07 05:14:26;;;;;;;8.58;4.45;;;;;;;1.83;68.09;102641.14;1667325;83;21042;-71
2021/10/07 05:16:53;;;;;;;7.90;4.80;;;;;;;1.91;67.68;102637.30;1684557;83;21089;-72
2021/10/07 05:19:20;;;;;;;7.12;4.50;;;;;;;1.98;67.37;102639.67;1679875;83;21120;-72
2021/10/07 05:21:47;;;;;;;9.23;4.47;;;;;;;2.05;67.15;102638.58;1657628;85;21066;-72
2021/10/07 05:24:14;;;;;;;8.05;4.67;;;;;;;2.13;66.66;102639.14;1671942;85;21149;-72
2021/10/07 05:26:43;;;;;;;7.87;4.35;;;;;;;2.21;66.55;102639.23;1659520;85;21039;-71
2021/10/07 05:29:16;;;;;;;6.92;4.30;;;;;;;2.29;66.34;102642.76;1676789;85;21337;-73
2021/10/07 05:31:57;;;;;;;7.12;4.10;;;;;;;2.38;66.03;102641.03;1675970;84;21113;-71
2021/10/07 05:34:40;;;;;;;8.20;4.42;;;;;;;2.47;65.78;102640.59;1677547;84;21185;-72
2021/10/07 05:37:17;;;;;;;9.05;5.17;;;;;;;2.58;65.56;102646.48;1679065;84;21142;-71
2021/10/07 05:39:53;;;;;;;7.30;4.20;;;;;;;2.65;64.93;102649.83;1685315;83;21118;-72
2021/10/07 05:42:23;;;;;;;9.90;4.97;;;;;;;2.71;64.84;102654.00;1712557;83;21701;-72
2021/10/07 05:44:52;;;;;;;10.15;5.17;;;;;;;2.78;64.80;102650.25;1682047;84;21137;-72
2021/10/07 05:47:22;;;;;;;7.45;5.03;;;;;;;2.89;64.45;102661.87;1693473;84;21037;-70
2021/10/07 05:49:50;;;;;;;10.85;5.03;;;;;;;2.94;64.16;102654.33;1693740;83;21102;-72
2021/10/07 05:52:29;;;;;;;11.38;5.08;;;;;;;3.01;64.12;102655.36;1693939;83;21556;-70
2021/10/07 05:55:10;;;;;;;17.45;5.60;;;;;;;3.11;64.11;102654.44;1689471;83;21042;-70
2021/10/07 05:57:45;;;;;;;11.88;5.05;;;;;;;3.21;63.95;102665.22;1695736;83;21055;-72
2021/10/07 06:00:21;;;;;;;8.48;4.28;;;;;;;3.31;63.94;102655.05;1681590;84;21160;-71
2021/10/07 06:03:19;;;;;;;10.78;4.85;;;;;;;3.40;63.56;102661.53;1687613;84;21173;-71
2021/10/07 06:05:46;;;;;;;20.05;7.62;;;;;;;3.53;63.06;102659.78;1677780;83;21133;-71
2021/10/07 06:08:13;;;;;;;10.38;5.03;;;;;;;3.62;62.48;102661.94;1678514;83;21088;-71
2021/10/07 06:10:40;;;;;;;8.45;4.30;;;;;;;3.70;62.32;102664.13;1678365;83;21125;-71
2021/10/07 06:13:06;;;;;;;9.48;4.75;;;;;;;3.82;62.42;102669.12;1677935;83;21585;-71
2021/10/07 06:15:34;;;;;;;8.98;4.75;;;;;;;3.92;62.10;102671.98;1636948;85;22021;-71
2021/10/07 06:18:01;;;;;;;7.78;4.65;;;;;;;4.03;61.19;102669.52;1676055;83;21085;-72
2021/10/07 06:22:55;;;;;;;7.83;3.90;;;;;;;4.20;60.71;102671.70;1672198;84;21106;-71
2021/10/07 06:25:22;;;;;;;8.90;4.37;;;;;;;4.29;60.63;102669.41;1676977;84;21082;-71
2021/10/07 06:27:50;;;;;;;9.98;4.50;;;;;;;4.39;60.07;102663.47;1670601;84;21137;-72
2021/10/07 06:30:18;;;;;;;8.93;4.40;;;;;;;4.52;59.39;102665.62;1674507;84;21133;-71
2021/10/07 06:32:44;;;;;;;10.32;4.28;;;;;;;4.63;58.48;102664.47;1672522;84;21543;-70
2021/10/07 06:35:13;;;;;;;9.75;4.42;;;;;;;4.68;57.78;102660.84;1675847;84;21659;-71
2021/10/07 06:37:41;;;;;;;9.73;4.37;;;;;;;4.77;57.88;102664.30;1679776;83;21157;-71
2021/10/07 06:40:08;;;;;;;9.58;4.12;;;;;;;4.88;57.93;102663.97;1674562;83;21153;-71
2021/10/07 06:42:35;;;;;;;7.15;4.00;;;;;;;5.02;57.79;102667.25;1676896;83;21109;-72
2021/10/07 06:45:06;;;;;;;7.08;4.20;;;;;;;5.15;57.30;102662.25;1676020;83;21050;-72
2021/10/07 06:47:33;;;;;;;6.78;3.90;;;;;;;5.23;56.14;102660.11;1679560;83;21655;-71
2021/10/07 06:50:01;;;;;;;8.15;4.33;;;;;;;5.25;56.14;102663.89;1678781;83;21101;-72
2021/10/07 06:52:27;;;;;;;7.83;4.10;;;;;;;5.31;56.37;102661.39;1680108;83;21132;-72
2021/10/07 06:54:54;;;;;;;7.45;4.08;;;;;;;5.40;56.26;102667.00;1656403;83;21590;-72
2021/10/07 06:57:20;;;;;;;7.70;4.83;;;;;;;5.52;55.78;102663.97;1678508;83;21066;-72
2021/10/07 06:59:46;;;;;;;8.23;4.50;;;;;;;5.60;55.92;102664.77;1678124;83;21070;-72
2021/10/07 07:02:14;;;;;;;7.37;3.90;;;;;;;5.65;55.55;102659.77;1670672;83;21560;-71
2021/10/07 07:04:41;;;;;;;7.72;4.30;;;;;;;5.73;55.05;102664.73;1677392;83;21796;-71
2021/10/07 07:07:07;;;;;;;6.03;3.52;;;;;;;5.78;54.67;102667.67;1679022;83;21529;-71
2021/10/07 07:09:34;;;;;;;7.22;3.90;;;;;;;5.84;54.99;102669.12;1678322;83;21071;-72
2021/10/07 07:12:01;;;;;;;7.60;4.05;;;;;;;5.93;54.93;102671.78;1693709;83;21073;-72
2021/10/07 07:14:28;;;;;;;9.65;3.75;;;;;;;6.02;54.91;102672.05;1690819;83;21049;-71
2021/10/07 07:16:55;;;;;;;5.75;3.30;;;;;;;6.14;54.26;102676.47;1676696;83;21157;-71
2021/10/07 07:19:22;;;;;;;6.10;4.00;;;;;;;6.18;53.90;102675.92;1676954;83;21122;-71
2021/10/07 07:21:49;;;;;;;8.98;3.95;;;;;;;6.22;53.64;102675.07;1677884;83;21157;-73
2021/10/07 07:24:15;;;;;;;6.47;3.80;;;;;;;6.29;53.87;102676.05;1676236;83;21648;-72
2021/10/07 07:26:42;;;;;;;6.37;3.72;;;;;;;6.38;53.89;102675.47;1673590;83;21161;-71
2021/10/07 07:29:09;;;;;;;10.15;3.42;;;;;;;6.48;53.79;102672.07;1675854;83;21129;-71
2021/10/07 07:31:36;;;;;;;13.30;4.50;;;;;;;6.58;52.76;102664.69;1678828;83;22049;-71
2021/10/07 07:34:03;;;;;;;9.25;3.55;;;;;;;6.65;52.23;102670.96;1673705;83;21066;-73
2021/10/07 07:36:29;;;;;;;8.58;4.00;;;;;;;6.72;52.52;102673.22;1677910;83;21090;-72
2021/10/07 07:38:57;;;;;;;13.00;3.92;;;;;;;6.78;52.05;102665.05;1674380;83;21075;-71
2021/10/07 07:41:24;;;;;;;8.43;3.75;;;;;;;6.88;52.25;102666.94;1676795;83;21553;-71
2021/10/07 07:43:51;;;;;;;7.05;3.40;;;;;;;6.98;52.33;102671.48;1694247;83;21037;-71
2021/10/07 07:46:20;;;;;;;8.08;3.35;;;;;;;7.16;52.08;102671.64;1699324;83;21074;-71
2021/10/07 07:48:48;;;;;;;8.98;3.65;;;;;;;7.29;51.08;102668.66;1684995;83;21041;-73
2021/10/07 07:51:19;;;;;;;7.05;3.10;;;;;;;7.37;50.38;102665.11;1692374;83;21098;-70
2021/10/07 07:53:53;;;;;;;9.63;3.20;;;;;;;7.45;50.13;102668.98;1661325;84;21169;-71
2021/10/07 07:56:24;;;;;;;7.72;3.00;;;;;;;7.55;49.97;102671.36;1693203;83;21157;-72
2021/10/07 07:59:07;;;;;;;11.05;3.47;;;;;;;7.65;49.10;102661.27;1690114;83;21561;-71
2021/10/07 08:01:36;;;;;;;6.10;3.20;;;;;;;7.75;48.63;102667.11;1682951;83;21027;-71
2021/10/07 08:04:12;;;;;;;6.95;3.02;;;;;;;7.85;48.12;102663.34;1671204;84;21049;-69
2021/10/07 08:06:50;;;;;;;4.97;2.72;;;;;;;7.96;48.82;102660.18;1678267;84;21140;-71
2021/10/07 08:09:30;;;;;;;;;;;;;;;;;;;;;
2021/10/07 08:11:55;;;;;;;5.17;2.70;;;;;;;8.16;47.02;102658.58;1675477;83;21030;-72
2021/10/07 08:14:33;;;;;;;7.05;2.98;;;;;;;8.20;46.74;102663.84;1652651;83;21093;-72
2021/10/07 08:17:20;;;;;;;7.25;2.52;;;;;;;8.27;46.53;102655.91;1675248;84;21082;-71
2021/10/07 08:19:49;;;;;;;4.50;2.55;;;;;;;8.32;46.18;102652.67;1678265;83;21138;-72
2021/10/07 08:22:21;;;;;;;7.12;2.47;;;;;;;8.42;45.79;102651.39;1673591;83;21122;-73
2021/10/07 08:24:50;;;;;;;5.75;2.40;;;;;;;8.52;44.03;102653.70;1674562;84;21054;-71
2021/10/07 08:27:26;;;;;;;4.95;2.10;;;;;;;8.58;43.58;102651.61;1660457;84;21312;-72
2021/10/07 08:29:56;;;;;;;6.37;2.30;;;;;;;8.62;43.20;102644.90;1667672;82;20924;-71
2021/10/07 08:32:34;;;;;;;5.25;2.72;;;;;;;8.68;43.03;102640.11;1684426;83;21081;-71
2021/10/07 08:35:06;;;;;;;4.28;2.00;;;;;;;8.76;43.05;102634.34;1679532;84;21156;-71
2021/10/07 08:37:44;;;;;;;6.42;2.33;;;;;;;8.86;43.28;102632.16;1692249;83;21028;-73
2021/10/07 08:40:22;;;;;;;;;;;;;;;;;;;;;
2021/10/07 08:42:48;;;;;;;6.55;2.45;;;;;;;9.22;42.40;102629.31;1686228;83;21021;-71
2021/10/07 08:45:30;;;;;;;5.35;2.27;;;;;;;9.29;41.68;102630.67;1660377;84;21174;-71
2021/10/07 08:47:59;;;;;;;7.15;2.30;;;;;;;9.32;41.44;102627.11;1648073;84;21236;-73
2021/10/07 08:50:37;;;;;;;7.25;2.05;;;;;;;9.42;42.12;102620.59;1703141;83;21069;-71
2021/10/07 08:53:10;;;;;;;4.30;2.17;;;;;;;9.55;41.31;102622.80;1664334;84;27532;-73
2021/10/07 08:56:06;;;;;;;;;;;;;;;;;;;;;
2021/10/07 08:58:19;;;;;;;6.65;2.20;;;;;;;9.73;40.96;102622.23;1669766;83;21072;-74
2021/10/07 09:00:54;;;;;;;4.58;1.85;;;;;;;9.85;41.13;102619.81;1669152;84;21460;-74
2021/10/07 09:03:33;;;;;;;5.12;2.20;;;;;;;9.92;40.81;102615.31;1666997;84;21084;-72
2021/10/07 09:06:20;;;;;;;3.50;2.10;;;;;;;9.95;40.72;102619.43;1668681;83;21460;-72
2021/10/07 09:08:53;;;;;;;3.77;2.17;;;;;;;9.97;40.81;102610.20;1690935;83;21681;-71
2021/10/07 09:11:36;;;;;;;6.15;2.80;;;;;;;10.02;40.79;102606.39;1681190;83;21297;-70
2021/10/07 09:14:12;;;;;;;5.03;2.20;;;;;;;10.12;41.19;102602.51;1689563;83;21073;-73
2021/10/07 09:16:52;;;;;;;5.35;2.50;;;;;;;10.30;41.27;102596.09;1691821;83;21572;-72
2021/10/07 09:19:39;;;;;;;5.85;2.10;;;;;;;10.46;40.97;102590.34;1671039;84;21090;-73
2021/10/07 09:22:25;;;;;;;5.35;2.15;;;;;;;10.61;40.76;102584.77;1685787;84;21042;-73
2021/10/07 09:25:04;;;;;;;4.50;2.25;;;;;;;10.76;40.17;102584.56;1662589;84;21162;-73
2021/10/07 09:27:35;;;;;;;5.83;1.98;;;;;;;10.88;39.00;102574.84;1654166;83;21548;-72
2021/10/07 09:30:16;;;;;;;4.05;2.05;;;;;;;11.01;39.38;102575.33;1677850;84;21082;-73
2021/10/07 09:32:52;;;;;;;6.33;1.70;;;;;;;11.16;38.88;102579.11;1671241;84;21110;-71
2021/10/07 09:35:23;;;;;;;11.97;2.10;;;;;;;11.30;37.88;102560.62;1664309;84;21123;-71
2021/10/07 09:37:59;;;;;;;4.12;1.40;;;;;;;11.41;37.19;102569.31;1644905;85;21438;-71
2021/10/07 09:40:39;;;;;;;;;;;;;;;;;;;;;
2021/10/07 09:43:11;;;;;;;3.60;1.70;;;;;;;11.48;35.56;102565.27;1637575;86;22311;-73
2021/10/07 09:45:36;;;;;;;5.57;1.50;;;;;;;11.44;35.48;102571.56;1673073;84;21867;-71
2021/10/07 09:48:19;;;;;;;;;;;;;;;;;;;;;
2021/10/07 09:50:49;;;;;;;3.83;1.80;;;;;;;11.55;35.07;102566.56;1650650;84;21155;-73
2021/10/07 09:53:23;;;;;;;4.40;1.37;;;;;;;11.51;35.29;102568.33;1670611;83;21325;-73
2021/10/07 09:55:54;;;;;;;5.07;1.40;;;;;;;11.53;36.20;102567.31;1674986;83;21959;-72
2021/10/07 09:58:28;;;;;;;2.57;1.37;;;;;;;11.64;35.99;102570.12;1672494;85;21339;-70
2021/10/07 10:01:07;;;;;;;4.43;1.70;;;;;;;11.79;35.54;102567.16;1668875;84;21354;-73
2021/10/07 10:03:36;;;;;;;4.40;1.87;;;;;;;11.94;35.27;102563.70;1663880;83;21448;-72
2021/10/07 10:06:15;;;;;;;;;;;;;;;;;;;;;
2021/10/07 10:08:51;;;;;;;;;;;;;;;;;;;;;
2021/10/07 10:11:11;;;;;;;9.23;1.87;;;;;;;12.17;33.85;102552.41;1668660;84;21340;-72
2021/10/07 10:13:48;;;;;;;4.47;1.40;;;;;;;12.16;33.75;102560.64;1684966;83;21858;-72
2021/10/07 10:16:17;;;;;;;4.47;1.53;;;;;;;12.12;34.03;102558.11;1681329;84;21269;-72
2021/10/07 10:18:58;;;;;;;5.90;1.90;;;;;;;12.11;33.30;102549.75;1669305;86;21954;-74
2021/10/07 10:21:31;;;;;;;4.53;1.53;;;;;;;12.11;33.08;102547.92;1648221;85;21350;-73
2021/10/07 10:24:03;;;;;;;3.53;1.50;;;;;;;12.12;33.83;102546.88;1704482;83;21248;-72
2021/10/07 10:26:43;;;;;;;4.73;2.30;;;;;;;12.18;33.83;102539.83;1667711;84;21108;-74
2021/10/07 10:29:24;;;;;;;3.50;1.70;;;;;;;12.30;33.90;102542.07;1670341;84;21310;-74
2021/10/07 10:32:15;;;;;;;6.90;1.63;;;;;;;12.44;33.67;102544.95;1681477;84;21298;-74
2021/10/07 10:34:55;;;;;;;;;;;;;;;12.54;32.88;102530.23;1658712;85;21830;-74
2021/10/07 10:37:25;;;;;;;;;;;;;;;;;;;;;
2021/10/07 10:39:53;;;;;;;4.40;1.40;;;;;;;12.49;32.78;102537.58;1675371;84;21267;-72
2021/10/07 10:42:31;;;;;;;5.67;1.40;;;;;;;12.49;32.56;102530.06;1667150;84;21370;-73
2021/10/07 10:45:06;;;;;;;2.67;1.33;;;;;;;12.50;32.26;102518.28;1653322;84;21436;-72
2021/10/07 10:48:00;;;;;;;3.97;1.80;;;;;;;12.49;33.65;102524.17;1678900;84;21311;-72
2021/10/07 10:50:22;;;;;;;4.73;1.80;;;;;;;12.51;32.95;102516.73;1680813;84;21179;-73
2021/10/07 10:53:04;;;;;;;5.23;1.73;;;;;;;12.57;32.79;102521.22;1650797;85;21397;-73
2021/10/07 10:55:47;;;;;;;;;;;;;;;;;;;;;
2021/10/07 10:58:11;;;;;;;6.20;1.70;;;;;;;12.61;32.31;102518.38;1658456;84;21390;-69
2021/10/07 11:00:44;;;;;;;2.93;1.60;;;;;;;12.59;32.42;102516.96;1672127;83;21354;-72
2021/10/07 11:03:26;;;;;;;5.27;1.77;;;;;;;12.59;32.51;102514.28;1661954;84;21290;-71
2021/10/07 11:06:03;;;;;;;;;;;;;;;12.55;31.98;102510.41;1658839;84;21268;-71
2021/10/07 11:08:52;;;;;;;8.53;2.00;;;;;;;12.55;33.16;102512.56;1670213;83;20172;-72
2021/10/07 11:11:37;;;;;;;5.43;1.87;;;;;;;12.60;32.26;102514.57;1686640;83;21318;-72
2021/10/07 11:14:07;;;;;;;8.37;2.03;;;;;;;12.66;32.36;102513.69;1677219;85;21354;-73
2021/10/07 11:16:38;;;;;;;8.33;1.67;;;;;;;12.69;32.33;102509.22;1690717;84;21270;-71
2021/10/07 11:19:14;;;;;;;3.53;1.60;;;;;;;12.75;32.18;102508.33;1657257;85;21933;-70
2021/10/07 11:21:49;;;;;;;5.50;1.60;;;;;;;12.80;32.36;102505.81;1680671;83;21329;-72
2021/10/07 11:24:19;;;;;;;7.70;2.43;;;;;;;12.82;31.37;102505.58;1661934;84;21405;-70
2021/10/07 11:27:00;;;;;;;5.40;1.60;;;;;;;12.86;32.11;102507.56;1693526;83;21202;-71
2021/10/07 11:29:33;;;;;;;4.43;1.30;;;;;;;12.95;32.83;102515.33;1667943;84;21377;-72
2021/10/07 11:32:06;;;;;;;5.43;1.90;;;;;;;13.01;31.67;102515.25;1684306;83;21164;-72
2021/10/07 11:34:35;;;;;;;4.08;1.57;;;;;;;13.12;32.29;102513.66;1665228;83;21484;-72
2021/10/07 11:37:24;;;;;;;;;;;;;;;;;;;;;
2021/10/07 11:39:55;;;;;;;7.37;2.10;;;;;;;13.27;31.37;102499.36;1662619;83;21271;-71
2021/10/07 11:42:52;;;;;;;;;;;;;;;;;;;;;
2021/10/07 11:45:31;;;;;;;3.97;1.67;;;;;;;13.25;30.04;102492.58;1676367;84;21288;-73
2021/10/07 11:48:18;;;;;;;5.30;2.00;;;;;;;13.13;29.85;102494.67;1680721;84;21152;-73
2021/10/07 11:50:43;;;;;;;8.97;1.93;;;;;;;12.96;30.57;102490.14;1674610;84;21337;-74
2021/10/07 11:53:36;;;;;;;11.13;2.50;;;;;;;12.88;30.61;102485.91;1675506;84;21527;-73
2021/10/07 11:56:27;;;;;;;4.63;1.70;;;;;;;12.78;30.10;102489.11;1675924;83;21278;-73
2021/10/07 11:59:15;;;;;;;9.73;2.07;;;;;;;12.80;31.67;102499.60;1672827;83;21212;-72
2021/10/07 12:01:44;;;;;;;6.93;1.90;;;;;;;12.91;31.54;102496.19;1658427;84;21214;-71
2021/10/07 12:04:12;;;;;;;4.77;1.93;;;;;;;13.00;30.60;102500.20;1674652;83;21352;-71
2021/10/07 12:06:48;;;;;;;6.30;2.00;;;;;;;13.05;31.34;102495.49;1645245;84;21374;-73
2021/10/07 12:09:18;;;;;;;5.33;2.17;;;;;;;13.12;30.45;102488.98;1692832;83;21256;-74